createdAt,value
2023-11-30T00:00:02.821Z,98.66
2023-11-30T00:01:02.254Z,98.2
2023-11-30T00:02:02.945Z,98.9
2023-11-30T00:03:02.243Z,99.36
2023-11-30T00:04:02.346Z,98.66
2023-11-30T00:05:02.212Z,99.13
2023-11-30T00:06:02.901Z,99.6
2023-11-30T00:07:02.440Z,99.36
2023-11-30T00:08:02.953Z,99.36
2023-11-30T00:09:02.535Z,99.13
2023-11-30T00:10:01.821Z,100.06
2023-11-30T00:11:02.294Z,99.83
2023-11-30T00:13:02.226Z,99.36
2023-11-30T00:14:02.326Z,99.6
2023-11-30T00:15:03.167Z,100.53
2023-11-30T00:16:02.620Z,101.47
2023-11-30T00:17:02.253Z,100.76
2023-11-30T00:18:02.542Z,100.06
2023-11-30T00:19:02.806Z,100.76
2023-11-30T00:20:02.646Z,100.3
2023-11-30T00:21:02.870Z,101
2023-11-30T00:22:02.363Z,101.93
2023-11-30T00:23:02.913Z,103.1
2023-11-30T00:24:02.745Z,104.27
2023-11-30T00:25:02.338Z,105.2
2023-11-30T00:26:02.843Z,106.84
2023-11-30T00:27:02.391Z,106.84
2023-11-30T00:28:02.281Z,108
2023-11-30T00:29:02.823Z,108.7
2023-11-30T00:30:02.223Z,107.77
2023-11-30T00:31:01.951Z,108.94
2023-11-30T00:32:02.236Z,110.11
2023-11-30T00:33:02.559Z,108
2023-11-30T00:34:02.331Z,107.3
2023-11-30T00:35:02.419Z,108
2023-11-30T00:36:02.300Z,108.7
2023-11-30T00:38:02.553Z,109.87
2023-11-30T00:39:02.330Z,110.11
2023-11-30T00:40:02.698Z,109.41
2023-11-30T00:42:02.623Z,107.77
2023-11-30T00:43:02.179Z,108.7
2023-11-30T00:44:02.474Z,107.77
2023-11-30T00:45:02.328Z,106.6
2023-11-30T00:46:09.381Z,107.07
2023-11-30T00:47:02.887Z,106.37
2023-11-30T00:48:02.602Z,107.3
2023-11-30T00:49:01.941Z,107.3
2023-11-30T00:50:03.003Z,106.6
2023-11-30T00:52:01.794Z,105.9
2023-11-30T00:53:02.012Z,105.44
2023-11-30T00:54:01.947Z,105.2
2023-11-30T00:55:02.766Z,103.57
2023-11-30T00:56:01.988Z,104.03
2023-11-30T00:57:02.914Z,103.57
2023-11-30T00:58:02.532Z,104.03
2023-11-30T00:59:01.773Z,104.27
2023-11-30T01:00:02.263Z,104.03
2023-11-30T01:01:02.193Z,104.03
2023-11-30T01:03:02.592Z,106.6
2023-11-30T01:04:02.617Z,107.54
2023-11-30T01:05:02.479Z,107.07
2023-11-30T01:06:02.912Z,106.6
2023-11-30T01:07:02.177Z,108.24
2023-11-30T01:08:03.085Z,107.77
2023-11-30T01:09:02.811Z,108
2023-11-30T01:10:02.705Z,108.7
2023-11-30T01:12:02.161Z,109.17
2023-11-30T01:13:02.573Z,109.64
2023-11-30T01:14:02.096Z,110.57
2023-11-30T01:15:02.089Z,109.41
2023-11-30T01:16:02.858Z,109.17
2023-11-30T01:17:01.885Z,109.41
2023-11-30T01:18:02.868Z,111.04
2023-11-30T01:19:02.756Z,111.27
2023-11-30T01:20:02.090Z,110.34
2023-11-30T01:21:02.135Z,108.7
2023-11-30T01:22:02.671Z,110.34
2023-11-30T01:23:02.026Z,110.11
2023-11-30T01:24:02.571Z,110.57
2023-11-30T01:25:01.952Z,109.17
2023-11-30T01:26:02.217Z,107.77
2023-11-30T01:27:01.999Z,107.54
2023-11-30T01:28:02.099Z,107.07
2023-11-30T01:29:02.319Z,106.6
2023-11-30T01:30:02.003Z,107.07
2023-11-30T01:31:02.164Z,106.6
2023-11-30T01:33:02.676Z,108.47
2023-11-30T01:34:02.457Z,111.27
2023-11-30T01:35:02.227Z,109.87
2023-11-30T01:36:02.606Z,109.64
2023-11-30T01:37:02.425Z,108.47
2023-11-30T01:38:02.738Z,109.41
2023-11-30T01:39:02.658Z,109.41
2023-11-30T01:40:02.028Z,108
2023-11-30T01:41:02.253Z,107.77
2023-11-30T01:42:05.620Z,107.54
2023-11-30T01:43:02.051Z,106.84
2023-11-30T01:44:02.068Z,107.3
2023-11-30T01:45:02.281Z,107.07
2023-11-30T01:46:04.119Z,106.14
2023-11-30T01:47:02.286Z,108.7
2023-11-30T01:48:02.675Z,108.7
2023-11-30T01:49:02.496Z,109.17
2023-11-30T01:50:02.755Z,108.24
2023-11-30T01:51:02.001Z,108
2023-11-30T01:53:02.502Z,109.17
2023-11-30T01:55:02.903Z,108.94
2023-11-30T01:56:02.052Z,108.47
2023-11-30T01:57:02.497Z,108.7
2023-11-30T01:59:02.720Z,109.64
2023-11-30T02:00:02.288Z,110.57
2023-11-30T02:01:02.131Z,110.57
2023-11-30T02:02:02.243Z,110.34
2023-11-30T02:03:02.490Z,108.94
2023-11-30T02:04:02.924Z,107.54
2023-11-30T02:06:02.177Z,108.24
2023-11-30T02:07:01.951Z,106.6
2023-11-30T02:08:02.070Z,106.37
2023-11-30T02:09:02.926Z,106.14
2023-11-30T02:10:02.032Z,104.73
2023-11-30T02:11:02.582Z,104.97
2023-11-30T02:12:02.868Z,105.67
2023-11-30T02:13:02.172Z,105.67
2023-11-30T02:14:01.993Z,105.2
2023-11-30T02:15:02.788Z,105.9
2023-11-30T02:16:02.558Z,106.84
2023-11-30T02:17:02.899Z,106.84
2023-11-30T02:18:01.953Z,105.67
2023-11-30T02:19:02.245Z,104.97
2023-11-30T02:20:02.620Z,105.44
2023-11-30T02:21:02.050Z,107.3
2023-11-30T02:22:02.463Z,105.9
2023-11-30T02:23:01.917Z,105.44
2023-11-30T02:24:02.311Z,104.03
2023-11-30T02:25:02.226Z,104.27
2023-11-30T02:26:02.941Z,103.8
2023-11-30T02:27:02.986Z,105.67
2023-11-30T02:28:02.960Z,105.44
2023-11-30T02:29:02.175Z,105.44
2023-11-30T02:30:02.941Z,105.67
2023-11-30T02:31:02.049Z,105.9
2023-11-30T02:32:02.319Z,104.27
2023-11-30T02:33:01.749Z,103.57
2023-11-30T02:34:01.945Z,101.23
2023-11-30T02:35:02.557Z,103.1
2023-11-30T02:36:02.099Z,105.2
2023-11-30T02:37:01.737Z,105.44
2023-11-30T02:38:02.207Z,104.5
2023-11-30T02:39:02.999Z,105.2
2023-11-30T02:40:01.786Z,106.84
2023-11-30T02:43:01.882Z,106.37
2023-11-30T02:44:02.689Z,105.44
2023-11-30T02:46:02.185Z,104.97
2023-11-30T02:47:02.523Z,101.47
2023-11-30T02:48:02.253Z,100.76
2023-11-30T02:49:02.904Z,101
2023-11-30T02:51:02.044Z,101.93
2023-11-30T02:53:02.798Z,100.06
2023-11-30T02:54:02.825Z,100.3
2023-11-30T02:55:02.281Z,100.3
2023-11-30T02:56:02.629Z,100.53
2023-11-30T02:57:02.573Z,101
2023-11-30T02:58:02.047Z,99.36
2023-11-30T02:59:02.056Z,99.36
2023-11-30T03:00:02.803Z,98.9
2023-11-30T03:01:03.180Z,99.83
2023-11-30T03:02:02.203Z,99.36
2023-11-30T03:03:02.850Z,99.36
2023-11-30T03:04:02.557Z,100.3
2023-11-30T03:05:01.746Z,99.83
2023-11-30T03:06:02.073Z,100.76
2023-11-30T03:07:02.380Z,101
2023-11-30T03:08:02.204Z,101.47
2023-11-30T03:09:02.060Z,102.17
2023-11-30T03:10:02.759Z,104.03
2023-11-30T03:11:02.406Z,104.03
2023-11-30T03:12:02.376Z,103.1
2023-11-30T03:13:02.833Z,104.73
2023-11-30T03:14:02.463Z,103.8
2023-11-30T03:15:02.214Z,103.1
2023-11-30T03:16:02.103Z,102.17
2023-11-30T03:17:01.940Z,102.63
2023-11-30T03:18:02.729Z,102.63
2023-11-30T03:19:13.923Z,103.33
2023-11-30T03:20:02.209Z,102.4
2023-11-30T03:21:02.313Z,100.3
2023-11-30T03:22:02.535Z,100.53
2023-11-30T03:23:01.964Z,101
2023-11-30T03:24:02.885Z,102.17
2023-11-30T03:25:02.923Z,102.63
2023-11-30T03:26:02.710Z,104.27
2023-11-30T03:27:02.940Z,102.4
2023-11-30T03:28:02.260Z,103.1
2023-11-30T03:29:02.810Z,104.97
2023-11-30T03:30:07.659Z,105.9
2023-11-30T03:31:02.242Z,106.14
2023-11-30T03:32:02.141Z,106.37
2023-11-30T03:34:02.754Z,106.6
2023-11-30T03:35:02.686Z,105.44
2023-11-30T03:36:02.744Z,104.73
2023-11-30T03:38:02.950Z,105.44
2023-11-30T03:39:02.661Z,105.67
2023-11-30T03:40:02.094Z,104.97
2023-11-30T03:41:02.153Z,104.73
2023-11-30T03:42:01.974Z,105.2
2023-11-30T03:44:03.129Z,106.6
2023-11-30T03:46:02.178Z,108
2023-11-30T03:47:02.569Z,110.34
2023-11-30T03:48:02.822Z,110.57
2023-11-30T03:49:02.324Z,109.87
2023-11-30T03:50:02.362Z,110.81
2023-11-30T03:51:02.702Z,110.81
2023-11-30T03:52:02.408Z,111.27
2023-11-30T03:53:02.537Z,111.51
2023-11-30T03:54:02.592Z,110.81
2023-11-30T03:55:02.605Z,110.81
2023-11-30T03:56:02.746Z,111.74
2023-11-30T03:57:02.890Z,110.81
2023-11-30T03:58:02.775Z,111.04
2023-11-30T03:59:02.034Z,111.04
2023-11-30T04:00:02.212Z,111.27
2023-11-30T04:01:02.249Z,110.11
2023-11-30T04:02:02.583Z,111.74
2023-11-30T04:03:02.185Z,111.51
2023-11-30T04:04:02.202Z,111.04
2023-11-30T04:05:03.034Z,111.27
2023-11-30T04:06:02.314Z,108.94
2023-11-30T04:09:02.277Z,111.51
2023-11-30T04:11:02.625Z,109.41
2023-11-30T04:12:02.742Z,108.94
2023-11-30T04:13:02.760Z,108.24
2023-11-30T04:14:02.702Z,109.87
2023-11-30T04:15:01.843Z,109.41
2023-11-30T04:16:02.164Z,108.94
2023-11-30T04:17:04.598Z,109.41
2023-11-30T04:18:02.853Z,109.64
2023-11-30T04:20:02.629Z,109.17
2023-11-30T04:21:02.315Z,110.11
2023-11-30T04:22:02.900Z,110.11
2023-11-30T04:23:02.477Z,110.34
2023-11-30T04:24:02.493Z,109.87
2023-11-30T04:25:02.012Z,109.64
2023-11-30T04:26:01.935Z,108.94
2023-11-30T04:27:02.653Z,109.17
2023-11-30T04:28:02.506Z,110.34
2023-11-30T04:29:02.721Z,110.34
2023-11-30T04:30:02.644Z,108.7
2023-11-30T04:31:03.019Z,108
2023-11-30T04:32:02.308Z,109.17
2023-11-30T04:33:02.371Z,109.64
2023-11-30T04:34:02.897Z,109.64
2023-11-30T04:36:02.125Z,110.81
2023-11-30T04:38:02.381Z,110.57
2023-11-30T04:39:02.678Z,108.47
2023-11-30T04:40:01.841Z,108.24
2023-11-30T04:41:01.974Z,109.87
2023-11-30T04:43:02.191Z,109.41
2023-11-30T04:44:02.636Z,109.87
2023-11-30T04:46:03.025Z,109.64
2023-11-30T04:47:01.656Z,109.17
2023-11-30T04:48:01.963Z,109.17
2023-11-30T04:50:02.152Z,107.3
2023-11-30T04:51:02.154Z,108
2023-11-30T04:52:02.047Z,108
2023-11-30T04:53:02.890Z,107.54
2023-11-30T04:54:02.889Z,109.64
2023-11-30T04:55:02.189Z,108.94
2023-11-30T04:56:02.373Z,108.94
2023-11-30T04:57:02.084Z,109.41
2023-11-30T04:58:01.864Z,109.17
2023-11-30T04:59:02.073Z,109.41
2023-11-30T05:02:02.074Z,107.3
2023-11-30T05:03:02.738Z,107.3
2023-11-30T05:05:02.264Z,107.07
2023-11-30T05:06:02.454Z,108.47
2023-11-30T05:07:02.741Z,108.47
2023-11-30T05:09:02.372Z,106.14
2023-11-30T05:10:02.487Z,105.67
2023-11-30T05:11:02.905Z,107.07
2023-11-30T05:12:02.263Z,106.84
2023-11-30T05:13:02.584Z,106.37
2023-11-30T05:14:03.076Z,105.2
2023-11-30T05:15:02.803Z,104.73
2023-11-30T05:17:02.297Z,106.14
2023-11-30T05:18:02.342Z,105.67
2023-11-30T05:19:02.006Z,104.73
2023-11-30T05:20:02.743Z,106.6
2023-11-30T05:21:02.484Z,105.44
2023-11-30T05:22:02.230Z,104.73
2023-11-30T05:23:02.712Z,103.1
2023-11-30T05:25:01.913Z,100.76
2023-11-30T05:26:02.697Z,101.23
2023-11-30T05:27:02.754Z,101.23
2023-11-30T05:28:02.630Z,99.36
2023-11-30T05:30:02.996Z,100.3
2023-11-30T05:32:02.198Z,98.9
2023-11-30T05:33:02.181Z,96.8
2023-11-30T05:34:02.759Z,97.03
2023-11-30T05:35:02.341Z,96.8
2023-11-30T05:36:02.614Z,95.63
2023-11-30T05:37:02.744Z,93.99
2023-11-30T05:38:02.888Z,93.99
2023-11-30T05:39:02.061Z,95.39
2023-11-30T05:40:03.032Z,97.03
2023-11-30T05:41:02.775Z,96.33
2023-11-30T05:42:02.230Z,95.39
2023-11-30T05:43:02.181Z,95.86
2023-11-30T05:44:02.298Z,95.86
2023-11-30T05:46:02.521Z,96.09
2023-11-30T05:47:02.731Z,95.39
2023-11-30T05:48:02.147Z,95.16
2023-11-30T05:49:02.923Z,95.86
2023-11-30T05:50:02.140Z,97.03
2023-11-30T05:51:02.878Z,96.09
2023-11-30T05:52:01.835Z,95.86
2023-11-30T05:53:02.488Z,96.56
2023-11-30T05:54:02.572Z,95.16
2023-11-30T05:55:02.126Z,95.63
2023-11-30T05:56:01.205Z,94.93
2023-11-30T05:57:02.156Z,94.23
2023-11-30T05:58:02.698Z,95.39
2023-11-30T05:59:02.099Z,95.39
2023-11-30T06:00:02.244Z,95.86
2023-11-30T06:01:02.221Z,97.26
2023-11-30T06:02:02.367Z,97.03
2023-11-30T06:03:03.699Z,97.73
2023-11-30T06:04:02.828Z,98.43
2023-11-30T06:05:02.545Z,98.66
2023-11-30T06:06:02.042Z,98.66
2023-11-30T06:07:02.482Z,98.66
2023-11-30T06:08:02.544Z,99.13
2023-11-30T06:09:02.390Z,99.83
2023-11-30T06:10:02.196Z,100.76
2023-11-30T06:11:02.729Z,99.83
2023-11-30T06:13:02.244Z,101.47
2023-11-30T06:14:02.314Z,102.17
2023-11-30T06:16:02.557Z,102.87
2023-11-30T06:17:01.935Z,102.87
2023-11-30T06:18:02.370Z,102.87
2023-11-30T06:19:02.736Z,103.8
2023-11-30T06:20:04.920Z,103.33
2023-11-30T06:22:02.374Z,103.57
2023-11-30T06:23:02.119Z,105.2
2023-11-30T06:24:02.419Z,105.9
2023-11-30T06:25:02.003Z,107.77
2023-11-30T06:26:02.409Z,106.84
2023-11-30T06:27:03.110Z,107.3
2023-11-30T06:28:01.947Z,107.54
2023-11-30T06:29:02.213Z,105.9
2023-11-30T06:30:02.895Z,105.9
2023-11-30T06:31:02.218Z,107.3
2023-11-30T06:32:02.709Z,107.3
2023-11-30T06:33:02.727Z,108.94
2023-11-30T06:34:02.592Z,107.54
2023-11-30T06:35:02.560Z,108.24
2023-11-30T06:36:01.971Z,107.54
2023-11-30T06:37:02.063Z,107.54
2023-11-30T06:38:02.426Z,109.17
2023-11-30T06:39:02.723Z,108.7
2023-11-30T06:40:02.024Z,106.84
2023-11-30T06:41:02.201Z,106.37
2023-11-30T06:42:02.721Z,106.14
2023-11-30T06:43:02.599Z,105.2
2023-11-30T06:45:02.376Z,106.6
2023-11-30T06:46:02.667Z,104.73
2023-11-30T06:47:02.823Z,105.2
2023-11-30T06:48:02.791Z,105.2
2023-11-30T06:49:02.569Z,104.97
2023-11-30T06:50:02.754Z,103.57
2023-11-30T06:51:02.657Z,103.8
2023-11-30T06:52:05.173Z,104.03
2023-11-30T06:53:02.440Z,104.5
2023-11-30T06:55:02.692Z,106.37
2023-11-30T06:56:02.283Z,106.37
2023-11-30T06:57:02.021Z,106.84
2023-11-30T06:59:01.645Z,105.67
2023-11-30T07:00:02.109Z,105.9
2023-11-30T07:02:02.737Z,106.84
2023-11-30T07:03:02.626Z,105.44
2023-11-30T07:04:02.132Z,105.44
2023-11-30T07:05:03.001Z,106.84
2023-11-30T07:06:03.048Z,106.84
2023-11-30T07:07:02.087Z,105.67
2023-11-30T07:08:03.078Z,105.44
2023-11-30T07:09:02.131Z,106.37
2023-11-30T07:10:02.865Z,106.14
2023-11-30T07:11:02.551Z,105.67
2023-11-30T07:12:02.926Z,105.2
2023-11-30T07:13:01.957Z,103.57
2023-11-30T07:14:02.470Z,103.57
2023-11-30T07:16:02.666Z,102.63
2023-11-30T07:17:02.354Z,103.1
2023-11-30T07:18:02.693Z,103.33
2023-11-30T07:19:02.065Z,104.5
2023-11-30T07:20:02.586Z,103.8
2023-11-30T07:21:02.159Z,104.73
2023-11-30T07:22:02.944Z,106.37
2023-11-30T07:23:02.043Z,104.73
2023-11-30T07:24:02.958Z,104.03
2023-11-30T07:25:02.093Z,102.4
2023-11-30T07:26:02.275Z,102.63
2023-11-30T07:27:02.297Z,103.33
2023-11-30T07:28:01.636Z,102.63
2023-11-30T07:29:02.233Z,102.87
2023-11-30T07:30:02.287Z,102.4
2023-11-30T07:31:02.592Z,102.63
2023-11-30T07:32:02.014Z,102.63
2023-11-30T07:33:02.872Z,102.87
2023-11-30T07:34:02.407Z,103.57
2023-11-30T07:35:02.575Z,103.57
2023-11-30T07:36:02.857Z,103.33
2023-11-30T07:37:02.467Z,103.33
2023-11-30T07:38:02.077Z,103.57
2023-11-30T07:40:02.055Z,103.57
2023-11-30T07:41:02.700Z,104.03
2023-11-30T07:42:03.420Z,104.5
2023-11-30T07:43:02.100Z,104.5
2023-11-30T07:44:02.785Z,104.5
2023-11-30T07:45:02.398Z,103.1
2023-11-30T07:46:03.145Z,102.63
2023-11-30T07:47:02.379Z,103.8
2023-11-30T07:48:03.185Z,104.97
2023-11-30T07:49:01.966Z,105.9
2023-11-30T07:50:02.194Z,105.9
2023-11-30T07:51:02.485Z,105.67
2023-11-30T07:52:02.550Z,106.37
2023-11-30T07:54:02.999Z,102.87
2023-11-30T07:55:04.183Z,102.63
2023-11-30T07:56:01.909Z,102.63
2023-11-30T07:57:02.604Z,104.27
2023-11-30T07:58:02.341Z,104.97
2023-11-30T07:59:01.708Z,105.44
2023-11-30T08:00:02.331Z,104.73
2023-11-30T08:01:01.781Z,104.5
2023-11-30T08:02:03.109Z,103.57
2023-11-30T08:03:02.164Z,104.03
2023-11-30T08:04:02.715Z,104.27
2023-11-30T08:05:02.333Z,104.03
2023-11-30T08:06:02.799Z,105.2
2023-11-30T08:09:02.170Z,104.27
2023-11-30T08:11:02.638Z,106.84
2023-11-30T08:12:02.211Z,107.54
2023-11-30T08:13:02.857Z,107.77
2023-11-30T08:14:02.199Z,106.6
2023-11-30T08:15:02.339Z,107.07
2023-11-30T08:16:02.821Z,108.24
2023-11-30T08:17:02.076Z,107.77
2023-11-30T08:19:02.777Z,106.6
2023-11-30T08:20:02.476Z,107.3
2023-11-30T08:21:02.822Z,107.07
2023-11-30T08:23:02.053Z,105.9
2023-11-30T08:24:02.704Z,106.14
2023-11-30T08:25:01.997Z,107.07
2023-11-30T08:26:02.894Z,106.84
2023-11-30T08:27:02.579Z,106.6
2023-11-30T08:28:02.578Z,106.6
2023-11-30T08:29:02.357Z,106.37
2023-11-30T08:30:02.593Z,106.14
2023-11-30T08:31:02.803Z,105.2
2023-11-30T08:32:02.587Z,105.2
2023-11-30T08:33:03.417Z,103.8
2023-11-30T08:34:02.867Z,104.03
2023-11-30T08:35:02.904Z,104.03
2023-11-30T08:36:02.984Z,104.5
2023-11-30T08:37:02.763Z,104.97
2023-11-30T08:39:02.747Z,105.67
2023-11-30T08:40:02.328Z,107.07
2023-11-30T08:41:02.305Z,106.37
2023-11-30T08:42:02.136Z,108.94
2023-11-30T08:43:02.137Z,110.57
2023-11-30T08:44:02.365Z,110.81
2023-11-30T08:46:02.441Z,112.91
2023-11-30T08:48:02.088Z,109.87
2023-11-30T08:49:02.160Z,109.87
2023-11-30T08:50:02.822Z,110.11
2023-11-30T08:51:02.106Z,110.34
2023-11-30T08:52:02.757Z,109.17
2023-11-30T08:53:02.161Z,109.17
2023-11-30T08:54:02.636Z,109.64
2023-11-30T08:55:02.538Z,110.34
2023-11-30T08:56:02.068Z,111.04
2023-11-30T08:57:02.084Z,110.11
2023-11-30T08:58:01.883Z,109.87
2023-11-30T08:59:02.771Z,109.17
2023-11-30T09:00:02.356Z,109.41
2023-11-30T09:01:02.651Z,109.64
2023-11-30T09:02:02.211Z,110.34
2023-11-30T09:03:02.591Z,110.57
2023-11-30T09:04:02.931Z,111.51
2023-11-30T09:05:02.509Z,110.34
2023-11-30T09:06:02.859Z,109.41
2023-11-30T09:07:02.293Z,109.17
2023-11-30T09:08:02.081Z,108.94
2023-11-30T09:09:02.050Z,108.7
2023-11-30T09:10:02.426Z,108.47
2023-11-30T09:13:02.812Z,105.67
2023-11-30T09:14:03.040Z,107.54
2023-11-30T09:15:02.032Z,105.9
2023-11-30T09:16:02.294Z,105.67
2023-11-30T09:17:02.209Z,104.73
2023-11-30T09:18:01.958Z,104.73
2023-11-30T09:19:02.211Z,104.97
2023-11-30T09:20:02.088Z,105.44
2023-11-30T09:21:02.860Z,105.2
2023-11-30T09:22:02.207Z,105.2
2023-11-30T09:23:02.271Z,105.44
2023-11-30T09:24:02.370Z,104.73
2023-11-30T09:25:02.568Z,105.67
2023-11-30T09:26:01.943Z,106.37
2023-11-30T09:27:02.412Z,106.37
2023-11-30T09:28:02.598Z,105.9
2023-11-30T09:29:02.816Z,106.14
2023-11-30T09:30:02.993Z,106.37
2023-11-30T09:32:02.234Z,107.07
2023-11-30T09:33:02.641Z,107.3
2023-11-30T09:34:02.599Z,108
2023-11-30T09:35:02.423Z,108
2023-11-30T09:36:02.867Z,108
2023-11-30T09:37:02.149Z,107.07
2023-11-30T09:38:02.891Z,107.3
2023-11-30T09:39:02.332Z,107.3
2023-11-30T09:40:02.360Z,106.6
2023-11-30T09:42:01.932Z,104.5
2023-11-30T09:43:02.157Z,102.87
2023-11-30T09:44:02.180Z,103.33
2023-11-30T09:45:02.081Z,102.87
2023-11-30T09:46:02.141Z,101.7
2023-11-30T09:47:02.640Z,101.93
2023-11-30T09:48:02.957Z,104.03
2023-11-30T09:49:02.683Z,102.63
2023-11-30T09:50:02.157Z,101.93
2023-11-30T09:51:02.240Z,101.93
2023-11-30T09:52:02.030Z,101
2023-11-30T09:53:02.612Z,101.47
2023-11-30T09:54:02.114Z,103.33
2023-11-30T09:55:01.783Z,103.33
2023-11-30T09:56:02.765Z,101.93
2023-11-30T09:57:02.515Z,101.93
2023-11-30T09:58:02.073Z,102.4
2023-11-30T09:59:02.206Z,103.1
2023-11-30T10:00:02.751Z,101.7
2023-11-30T10:01:02.681Z,102.63
2023-11-30T10:03:02.397Z,102.4
2023-11-30T10:05:02.024Z,102.87
2023-11-30T10:06:02.373Z,103.33
2023-11-30T10:07:02.209Z,102.17
2023-11-30T10:08:04.029Z,101.7
2023-11-30T10:09:02.072Z,104.5
2023-11-30T10:10:02.697Z,104.03
2023-11-30T10:13:02.124Z,105.44
2023-11-30T10:14:02.165Z,105.2
2023-11-30T10:16:03.087Z,106.14
2023-11-30T10:17:02.923Z,107.3
2023-11-30T10:18:02.094Z,108
2023-11-30T10:19:03.747Z,107.07
2023-11-30T10:20:02.130Z,105.9
2023-11-30T10:21:01.712Z,106.14
2023-11-30T10:22:02.574Z,109.17
2023-11-30T10:23:02.336Z,109.17
2023-11-30T10:24:02.237Z,111.04
2023-11-30T10:25:01.887Z,110.34
2023-11-30T10:26:02.407Z,109.41
2023-11-30T10:27:02.550Z,108.47
2023-11-30T10:28:02.916Z,109.64
2023-11-30T10:29:02.730Z,110.81
2023-11-30T10:30:02.458Z,111.51
2023-11-30T10:31:02.242Z,111.27
2023-11-30T10:32:03.004Z,111.27
2023-11-30T10:33:01.834Z,111.97
2023-11-30T10:34:02.224Z,111.51
2023-11-30T10:35:01.941Z,111.74
2023-11-30T10:36:01.991Z,113.14
2023-11-30T10:37:04.015Z,114.54
2023-11-30T10:38:02.193Z,113.14
2023-11-30T10:39:02.588Z,113.14
2023-11-30T10:40:02.458Z,112.44
2023-11-30T10:41:01.889Z,112.91
2023-11-30T10:42:02.868Z,112.91
2023-11-30T10:43:03.604Z,113.61
2023-11-30T10:44:02.927Z,113.61
2023-11-30T10:45:01.862Z,114.78
2023-11-30T10:49:02.207Z,114.78
2023-11-30T10:50:02.599Z,115.24
2023-11-30T10:51:01.778Z,114.31
2023-11-30T10:53:02.460Z,114.31
2023-11-30T10:54:02.715Z,111.27
2023-11-30T10:55:02.260Z,111.04
2023-11-30T10:56:02.804Z,111.51
2023-11-30T10:57:02.207Z,112.44
2023-11-30T10:59:02.735Z,110.34
2023-11-30T11:00:02.182Z,111.74
2023-11-30T11:01:02.301Z,111.97
2023-11-30T11:02:02.096Z,111.51
2023-11-30T11:03:02.631Z,111.51
2023-11-30T11:04:02.717Z,109.41
2023-11-30T11:06:02.860Z,111.74
2023-11-30T11:07:02.029Z,114.54
2023-11-30T11:08:02.151Z,114.08
2023-11-30T11:09:02.112Z,111.74
2023-11-30T11:11:01.993Z,112.68
2023-11-30T11:12:02.827Z,113.61
2023-11-30T11:13:02.381Z,112.44
2023-11-30T11:14:02.438Z,111.97
2023-11-30T11:15:02.229Z,111.04
2023-11-30T11:16:02.236Z,112.21
2023-11-30T11:18:02.395Z,109.87
2023-11-30T11:19:02.436Z,111.97
2023-11-30T11:20:02.313Z,111.74
2023-11-30T11:21:02.722Z,111.51
2023-11-30T11:22:02.007Z,109.17
2023-11-30T11:23:02.245Z,110.34
2023-11-30T11:24:02.079Z,109.64
2023-11-30T11:25:02.921Z,109.87
2023-11-30T11:26:02.553Z,110.57
2023-11-30T11:28:02.309Z,109.64
2023-11-30T11:29:02.511Z,110.11
2023-11-30T11:30:02.546Z,108.7
2023-11-30T11:31:02.918Z,109.17
2023-11-30T11:32:02.859Z,108.94
2023-11-30T11:33:02.597Z,107.54
2023-11-30T11:34:02.641Z,108
2023-11-30T11:35:02.075Z,108
2023-11-30T11:36:02.344Z,106.6
2023-11-30T11:37:01.661Z,105.9
2023-11-30T11:38:02.795Z,105.2
2023-11-30T11:39:02.066Z,105.67
2023-11-30T11:40:02.674Z,107.07
2023-11-30T11:41:02.537Z,107.77
2023-11-30T11:42:01.991Z,108.47
2023-11-30T11:43:02.448Z,108.7
2023-11-30T11:44:02.462Z,107.77
2023-11-30T11:45:01.910Z,105.67
2023-11-30T11:46:02.416Z,104.27
2023-11-30T11:47:02.786Z,104.5
2023-11-30T11:48:02.165Z,102.87
2023-11-30T11:49:02.140Z,103.8
2023-11-30T11:50:03.017Z,103.8
2023-11-30T11:51:02.594Z,104.5
2023-11-30T11:52:02.649Z,104.97
2023-11-30T11:53:02.688Z,105.2
2023-11-30T11:54:02.153Z,107.54
2023-11-30T11:57:01.976Z,104.73
2023-11-30T11:58:02.715Z,104.5
2023-11-30T11:59:02.798Z,104.5
2023-11-30T12:00:02.832Z,102.87
2023-11-30T12:02:02.295Z,102.17
2023-11-30T12:03:02.596Z,101.23
2023-11-30T12:04:02.336Z,101.23
2023-11-30T12:05:01.898Z,100.76
2023-11-30T12:06:02.000Z,100.06
2023-11-30T12:08:02.860Z,98.2
2023-11-30T12:09:02.569Z,97.73
2023-11-30T12:10:02.229Z,97.96
2023-11-30T12:11:02.074Z,97.73
2023-11-30T12:12:02.057Z,97.5
2023-11-30T12:13:02.452Z,98.2
2023-11-30T12:14:02.088Z,98.43
2023-11-30T12:15:02.187Z,98.2
2023-11-30T12:16:02.627Z,96.09
2023-11-30T12:17:02.831Z,96.56
2023-11-30T12:18:02.729Z,97.03
2023-11-30T12:19:02.927Z,96.09
2023-11-30T12:20:02.069Z,95.86
2023-11-30T12:21:01.802Z,95.39
2023-11-30T12:22:02.968Z,94.69
2023-11-30T12:23:02.740Z,93.99
2023-11-30T12:24:03.011Z,93.29
2023-11-30T12:25:02.733Z,92.83
2023-11-30T12:26:02.696Z,93.06
2023-11-30T12:27:02.041Z,93.99
2023-11-30T12:28:02.057Z,93.29
2023-11-30T12:29:02.201Z,91.89
2023-11-30T12:30:02.248Z,91.89
2023-11-30T12:31:02.427Z,93.06
2023-11-30T12:32:02.752Z,93.06
2023-11-30T12:33:02.608Z,94.46
2023-11-30T12:34:02.916Z,93.53
2023-11-30T12:35:01.694Z,92.83
2023-11-30T12:36:02.165Z,92.83
2023-11-30T12:37:02.388Z,92.13
2023-11-30T12:38:02.570Z,92.83
2023-11-30T12:39:03.002Z,92.13
2023-11-30T12:40:02.685Z,90.02
2023-11-30T12:41:02.675Z,89.79
2023-11-30T12:42:03.718Z,88.39
2023-11-30T12:43:02.156Z,88.39
2023-11-30T12:44:03.656Z,88.16
2023-11-30T12:45:02.730Z,90.96
2023-11-30T12:46:02.740Z,92.83
2023-11-30T12:47:02.617Z,94.69
2023-11-30T12:48:02.527Z,96.33
2023-11-30T12:49:02.160Z,97.26
2023-11-30T12:51:02.244Z,96.33
2023-11-30T12:53:02.663Z,96.8
2023-11-30T12:55:02.284Z,96.09
2023-11-30T12:56:01.847Z,95.86
2023-11-30T12:57:02.431Z,95.63
2023-11-30T12:58:02.312Z,96.8
2023-11-30T12:59:02.573Z,97.5
2023-11-30T13:01:02.776Z,99.83
2023-11-30T13:02:02.001Z,99.83
2023-11-30T13:05:02.230Z,102.4
2023-11-30T13:06:02.575Z,101.7
2023-11-30T13:07:02.148Z,102.4
2023-11-30T13:08:02.341Z,102.87
2023-11-30T13:09:02.685Z,103.1
2023-11-30T13:12:02.397Z,102.17
2023-11-30T13:13:02.436Z,103.33
2023-11-30T13:14:07.321Z,103.33
2023-11-30T13:15:02.231Z,103.57
2023-11-30T13:16:02.624Z,103.8
2023-11-30T13:17:02.687Z,104.73
2023-11-30T13:18:02.767Z,105.2
2023-11-30T13:19:02.894Z,105.2
2023-11-30T13:20:02.679Z,105.67
2023-11-30T13:21:02.188Z,105.44
2023-11-30T13:22:01.859Z,107.3
2023-11-30T13:24:02.087Z,105.44
2023-11-30T13:25:02.124Z,105.67
2023-11-30T13:26:02.316Z,106.14
2023-11-30T13:27:02.588Z,105.67
2023-11-30T13:28:02.800Z,107.07
2023-11-30T13:29:02.825Z,107.07
2023-11-30T13:30:02.678Z,106.84
2023-11-30T13:31:02.438Z,104.73
2023-11-30T13:32:01.918Z,104.97
2023-11-30T13:33:02.254Z,103.33
2023-11-30T13:34:02.074Z,103.33
2023-11-30T13:35:02.340Z,104.03
2023-11-30T13:36:02.488Z,104.03
2023-11-30T13:37:01.859Z,104.03
2023-11-30T13:38:02.571Z,104.27
2023-11-30T13:39:03.064Z,104.97
2023-11-30T13:40:02.504Z,107.07
2023-11-30T13:41:02.615Z,106.6
2023-11-30T13:42:02.369Z,107.77
2023-11-30T13:43:02.045Z,107.54
2023-11-30T13:44:02.142Z,107.54
2023-11-30T13:45:01.828Z,105.2
2023-11-30T13:48:02.798Z,102.4
2023-11-30T13:50:02.675Z,103.33
2023-11-30T13:51:04.670Z,104.03
2023-11-30T13:52:02.157Z,103.8
2023-11-30T13:53:01.869Z,104.73
2023-11-30T13:54:02.504Z,105.44
2023-11-30T13:55:02.029Z,105.2
2023-11-30T13:56:02.147Z,105.9
2023-11-30T13:57:02.637Z,107.07
2023-11-30T13:58:02.661Z,106.14
2023-11-30T13:59:02.526Z,105.2
2023-11-30T14:00:02.200Z,104.73
2023-11-30T14:01:02.568Z,104.97
2023-11-30T14:02:02.238Z,105.44
2023-11-30T14:03:02.323Z,104.5
2023-11-30T14:04:02.932Z,102.87
2023-11-30T14:05:02.451Z,103.57
2023-11-30T14:06:03.041Z,102.87
2023-11-30T14:07:02.226Z,102.17
2023-11-30T14:09:01.974Z,102.63
2023-11-30T14:10:02.165Z,102.63